Time;durP1;ratioP1;P1;durP2;ratioP2;P2;SDS_P1;SDS_P2;PMS_P1;PMS_P2;Temp;Humidity;BMP_temperature;BMP_pressure;BME280_temperature;BME280_humidity;BME280_pressure;Samples;Min_cycle;Max_cycle;Signal;HPM_P1;HPM_P2
2021/09/24 00:01:24;;;;;;;2.03;1.35;;;16.30;73.90;;;;;;4989295;28;20046;-80
2021/09/24 00:03:51;;;;;;;2.13;1.33;;;16.30;74.50;;;;;;4998716;28;20045;-79
2021/09/24 00:06:17;;;;;;;2.30;1.13;;;16.30;74.00;;;;;;5008519;28;20030;-77
2021/09/24 00:08:43;;;;;;;2.22;1.30;;;16.30;73.90;;;;;;4991161;28;20037;-79
2021/09/24 00:11:09;;;;;;;1.92;1.23;;;16.30;74.50;;;;;;5007046;28;20033;-78
2021/09/24 00:13:35;;;;;;;1.80;1.17;;;16.30;74.00;;;;;;5008554;28;20033;-77
2021/09/24 00:16:01;;;;;;;3.35;1.63;;;16.20;73.80;;;;;;4991253;28;20026;-76
2021/09/24 00:18:27;;;;;;;1.65;1.15;;;16.20;73.90;;;;;;4986794;28;20033;-78
2021/09/24 00:20:53;;;;;;;3.30;1.45;;;16.20;73.90;;;;;;4971567;28;20402;-77
2021/09/24 00:23:18;;;;;;;2.95;1.27;;;16.20;74.00;;;;;;4987486;28;20034;-78
2021/09/24 00:25:44;;;;;;;2.92;1.30;;;16.20;74.00;;;;;;4978773;28;20030;-77
2021/09/24 00:28:10;;;;;;;2.15;1.38;;;16.20;74.10;;;;;;4987696;28;20117;-78
2021/09/24 00:30:37;;;;;;;2.78;1.55;;;16.20;74.10;;;;;;4987929;28;20031;-77
2021/09/24 00:33:03;;;;;;;3.03;1.65;;;16.20;74.20;;;;;;4987899;28;20497;-77
2021/09/24 00:35:29;;;;;;;3.63;1.23;;;16.10;74.10;;;;;;4955984;28;20034;-78
2021/09/24 00:37:55;;;;;;;2.20;1.23;;;16.10;74.10;;;;;;4972161;28;20365;-78
2021/09/24 00:40:21;;;;;;;2.45;1.20;;;16.10;74.10;;;;;;4971482;28;20037;-77
2021/09/24 00:42:49;;;;;;;2.05;1.48;;;16.20;74.30;;;;;;4971653;28;20026;-79
2021/09/24 00:45:15;;;;;;;2.42;1.38;;;16.10;74.10;;;;;;4971277;28;20299;-77
2021/09/24 00:47:41;;;;;;;3.13;1.83;;;16.20;74.30;;;;;;4986406;28;20108;-78
2021/09/24 00:50:08;;;;;;;3.05;1.83;;;16.10;74.10;;;;;;4990710;28;20569;-77
2021/09/24 00:52:34;;;;;;;3.92;1.30;;;16.20;74.30;;;;;;4987993;28;20034;-77
2021/09/24 00:55:00;;;;;;;2.75;1.25;;;16.10;74.10;;;;;;4989983;28;20172;-79
2021/09/24 00:57:26;;;;;;;4.85;1.27;;;16.10;74.10;;;;;;5008318;28;20136;-76
2021/09/24 00:59:52;;;;;;;2.17;1.27;;;16.10;74.00;;;;;;4975490;28;20034;-78
2021/09/24 01:02:19;;;;;;;2.20;1.35;;;16.10;74.00;;;;;;4989024;28;20189;-78
2021/09/24 01:04:45;;;;;;;1.35;1.25;;;16.10;74.20;;;;;;4988449;28;20055;-78
2021/09/24 01:07:12;;;;;;;2.33;1.30;;;16.10;74.00;;;;;;4989014;28;20034;-78
2021/09/24 01:09:38;;;;;;;1.45;1.35;;;16.00;73.90;;;;;;4988345;28;20031;-78
2021/09/24 01:12:05;;;;;;;1.70;1.33;;;16.00;73.90;;;;;;4970664;28;20037;-77
2021/09/24 01:14:31;;;;;;;2.85;1.85;;;16.00;73.90;;;;;;4985705;28;20044;-77
2021/09/24 01:16:59;;;;;;;1.63;1.33;;;16.00;74.00;;;;;;4990104;28;20038;-77
2021/09/24 01:19:26;;;;;;;2.15;1.80;;;16.00;74.00;;;;;;4999456;28;20029;-76
2021/09/24 01:21:53;;;;;;;2.25;2.05;;;15.90;73.80;;;;;;4974339;28;20358;-78
2021/09/24 01:24:19;;;;;;;3.85;1.77;;;15.90;73.90;;;;;;4997135;28;20026;-79
2021/09/24 01:26:51;;;;;;;3.70;1.90;;;15.90;73.90;;;;;;4993175;28;20018;-80
2021/09/24 01:29:20;;;;;;;3.00;1.65;;;15.90;74.00;;;;;;5023095;28;20026;-77
2021/09/24 01:31:46;;;;;;;3.80;1.90;;;15.80;73.80;;;;;;5007751;28;20033;-78
2021/09/24 01:34:12;;;;;;;4.88;2.30;;;15.80;73.80;;;;;;5011961;28;20018;-78
2021/09/24 01:36:38;;;;;;;3.00;2.70;;;15.80;73.90;;;;;;5002651;28;20157;-79
2021/09/24 01:39:06;;;;;;;5.55;2.38;;;15.80;73.90;;;;;;4989886;28;20074;-78
2021/09/24 01:41:36;;;;;;;3.28;2.30;;;15.80;74.00;;;;;;4972673;28;20046;-78
2021/09/24 01:44:02;;;;;;;4.03;2.92;;;15.70;73.80;;;;;;4989350;28;20105;-79
2021/09/24 01:46:28;;;;;;;3.25;2.95;;;15.70;73.80;;;;;;4999038;28;20034;-79
2021/09/24 01:48:54;;;;;;;4.28;2.90;;;15.70;73.90;;;;;;4993443;28;20044;-79
2021/09/24 01:51:20;;;;;;;4.97;2.90;;;15.70;73.90;;;;;;4993064;28;20034;-78
2021/09/24 01:53:47;;;;;;;4.47;3.28;;;15.70;73.90;;;;;;5011434;28;20374;-78
2021/09/24 01:56:13;;;;;;;5.30;3.35;;;15.60;73.80;;;;;;4968676;28;20045;-78
2021/09/24 01:58:39;;;;;;;3.63;2.70;;;15.60;73.80;;;;;;5009943;28;20544;-79
2021/09/24 02:01:05;;;;;;;4.75;3.10;;;15.60;73.80;;;;;;4991525;28;20033;-78
2021/09/24 02:03:31;;;;;;;3.97;3.13;;;15.50;73.60;;;;;;5009870;28;20022;-79
2021/09/24 02:05:57;;;;;;;4.35;3.45;;;15.50;73.60;;;;;;5009377;28;20061;-78
2021/09/24 02:08:23;;;;;;;3.33;3.03;;;15.40;73.50;;;;;;4994854;28;20073;-79
2021/09/24 02:10:49;;;;;;;4.15;3.50;;;15.40;73.50;;;;;;5012797;28;20080;-78
2021/09/24 02:13:15;;;;;;;4.70;3.63;;;15.40;73.50;;;;;;4995913;28;20040;-78
2021/09/24 02:15:41;;;;;;;3.83;3.42;;;15.40;73.60;;;;;;4991933;28;20030;-78
2021/09/24 02:18:07;;;;;;;5.32;3.25;;;15.30;73.40;;;;;;4975613;28;20050;-78
2021/09/24 02:20:33;;;;;;;5.38;3.65;;;15.30;73.50;;;;;;4974363;28;20527;-78
2021/09/24 02:22:59;;;;;;;6.88;4.30;;;15.30;73.50;;;;;;4974476;28;20561;-78
2021/09/24 02:25:26;;;;;;;6.72;3.95;;;15.20;73.30;;;;;;4991554;28;20354;-78
2021/09/24 02:27:52;;;;;;;4.25;3.85;;;15.20;73.40;;;;;;4958018;28;20113;-78
2021/09/24 02:30:18;;;;;;;4.97;3.88;;;15.20;73.40;;;;;;4991821;28;20109;-78
2021/09/24 02:32:44;;;;;;;5.07;4.18;;;15.10;73.30;;;;;;4991239;28;20339;-78
2021/09/24 02:35:10;;;;;;;4.10;3.70;;;15.10;73.30;;;;;;4989482;28;20487;-78
2021/09/24 02:37:36;;;;;;;5.32;4.22;;;15.00;73.20;;;;;;4973489;28;20046;-78
2021/09/24 02:40:03;;;;;;;5.60;4.45;;;15.00;73.30;;;;;;4989820;28;20034;-78
2021/09/24 02:42:29;;;;;;;5.00;4.47;;;15.00;73.30;;;;;;4989877;28;20038;-79
2021/09/24 02:44:55;;;;;;;5.40;4.28;;;15.00;73.30;;;;;;4989448;28;20081;-78
2021/09/24 02:47:21;;;;;;;5.38;3.97;;;15.00;73.40;;;;;;5001862;28;20069;-79
2021/09/24 02:49:48;;;;;;;4.85;4.43;;;14.90;73.30;;;;;;5010690;28;20026;-78
2021/09/24 02:52:14;;;;;;;5.50;4.10;;;14.90;73.30;;;;;;4992986;28;20550;-79
2021/09/24 02:54:41;;;;;;;7.25;4.97;;;14.90;73.30;;;;;;4976891;28;20509;-79
2021/09/24 02:57:06;;;;;;;5.10;4.35;;;14.80;73.20;;;;;;5010105;28;20424;-77
2021/09/24 02:59:32;;;;;;;5.55;4.40;;;14.80;73.20;;;;;;4992633;28;20033;-79
2021/09/24 03:01:58;;;;;;;5.82;4.63;;;14.80;73.30;;;;;;5006490;28;20088;-79
2021/09/24 03:04:26;;;;;;;6.45;4.95;;;14.80;73.30;;;;;;4958609;28;20034;-79
2021/09/24 03:06:52;;;;;;;5.50;4.22;;;14.70;73.10;;;;;;4976223;28;20045;-80
2021/09/24 03:09:18;;;;;;;4.63;4.22;;;14.70;73.20;;;;;;5010197;28;20037;-77
2021/09/24 03:11:44;;;;;;;4.45;4.03;;;14.70;73.20;;;;;;5010061;28;20038;-77
2021/09/24 03:14:10;;;;;;;4.60;4.00;;;14.70;73.20;;;;;;5010340;28;20093;-77
2021/09/24 03:16:41;;;;;;;5.90;5.32;;;14.60;73.00;;;;;;4988850;28;20240;-77
2021/09/24 03:19:08;;;;;;;5.80;4.57;;;14.60;73.10;;;;;;4990334;28;20034;-80
2021/09/24 03:21:35;;;;;;;7.00;5.32;;;14.60;73.10;;;;;;4989076;28;20583;-77
2021/09/24 03:24:01;;;;;;;6.00;4.50;;;14.50;73.00;;;;;;4990686;28;20633;-78
2021/09/24 03:26:27;;;;;;;9.20;4.78;;;14.50;73.00;;;;;;4989902;28;20037;-79
2021/09/24 03:28:53;;;;;;;5.70;4.00;;;14.50;73.00;;;;;;4996313;28;20034;-80
2021/09/24 03:31:22;;;;;;;4.97;4.15;;;14.50;73.00;;;;;;4996275;28;20278;-79
2021/09/24 03:33:47;;;;;;;5.95;4.63;;;14.40;72.90;;;;;;4996477;28;20129;-79
2021/09/24 03:36:13;;;;;;;4.50;4.10;;;14.40;72.90;;;;;;5013874;28;20116;-76
2021/09/24 03:38:39;;;;;;;4.97;4.35;;;14.40;73.00;;;;;;5013764;28;20393;-77
2021/09/24 03:41:06;;;;;;;5.97;4.03;;;14.40;73.00;;;;;;4996081;28;20025;-77
2021/09/24 03:43:32;;;;;;;5.05;4.55;;;14.30;72.90;;;;;;4996089;28;20034;-79
2021/09/24 03:45:57;;;;;;;6.78;4.45;;;14.30;72.90;;;;;;5011820;28;20497;-79
2021/09/24 03:48:24;;;;;;;6.05;4.80;;;14.30;72.90;;;;;;5013123;28;20123;-78
2021/09/24 03:50:50;;;;;;;5.90;4.25;;;14.30;73.00;;;;;;4996216;28;20053;-77
2021/09/24 03:53:16;;;;;;;6.57;5.32;;;14.30;73.00;;;;;;4995963;28;20422;-76
2021/09/24 03:55:42;;;;;;;6.80;5.10;;;14.20;72.80;;;;;;4986406;28;20110;-78
2021/09/24 03:58:08;;;;;;;6.15;4.85;;;14.20;72.80;;;;;;4979134;28;20053;-77
2021/09/24 04:00:34;;;;;;;5.18;4.65;;;14.20;72.80;;;;;;5013246;28;20048;-78
2021/09/24 04:03:00;;;;;;;4.97;4.50;;;14.20;72.90;;;;;;5012177;28;20397;-79
2021/09/24 04:05:27;;;;;;;5.22;4.07;;;14.20;72.90;;;;;;4996380;28;20026;-78
2021/09/24 04:07:53;;;;;;;6.60;4.60;;;14.10;72.80;;;;;;4996437;28;20053;-79
2021/09/24 04:10:19;;;;;;;5.55;4.97;;;14.10;72.80;;;;;;4995529;28;20064;-77
2021/09/24 04:12:45;;;;;;;5.50;4.65;;;14.10;72.80;;;;;;4995967;28;20038;-77
2021/09/24 04:15:12;;;;;;;6.78;4.80;;;14.10;72.80;;;;;;5009786;28;20508;-77
2021/09/24 04:17:38;;;;;;;6.80;5.47;;;14.10;72.80;;;;;;4995092;28;20045;-78
2021/09/24 04:20:04;;;;;;;5.47;4.30;;;14.00;72.70;;;;;;5012912;28;20025;-77
2021/09/24 04:22:30;;;;;;;7.78;4.75;;;14.00;72.70;;;;;;5013242;28;20030;-78
2021/09/24 04:24:56;;;;;;;5.30;4.63;;;14.00;72.70;;;;;;5004354;28;20041;-77
2021/09/24 04:27:22;;;;;;;8.10;5.22;;;14.00;72.70;;;;;;5001344;28;20014;-76
2021/09/24 04:29:48;;;;;;;6.43;5.10;;;13.90;72.50;;;;;;5036375;28;20041;-77
2021/09/24 04:32:14;;;;;;;6.40;4.85;;;13.90;72.50;;;;;;5036548;28;20052;-78
2021/09/24 04:34:40;;;;;;;5.40;4.47;;;13.90;72.60;;;;;;5019445;28;20026;-77
2021/09/24 04:37:06;;;;;;;5.82;4.57;;;13.90;72.60;;;;;;5018061;28;20046;-77
2021/09/24 04:39:32;;;;;;;8.93;4.78;;;13.80;72.50;;;;;;4995471;28;20197;-77
2021/09/24 04:41:58;;;;;;;6.28;4.97;;;13.80;72.50;;;;;;4995689;28;20064;-77
2021/09/24 04:44:24;;;;;;;6.68;5.07;;;13.80;72.50;;;;;;4995158;28;20474;-76
2021/09/24 04:46:50;;;;;;;7.57;5.82;;;13.80;72.60;;;;;;4979890;28;20050;-77
2021/09/24 04:49:17;;;;;;;5.13;4.63;;;13.70;72.50;;;;;;4989935;28;20141;-77
2021/09/24 04:51:44;;;;;;;6.47;5.25;;;13.80;72.60;;;;;;5009933;28;20044;-77
2021/09/24 04:54:10;;;;;;;7.63;4.60;;;13.70;72.50;;;;;;4993734;28;20125;-78
2021/09/24 04:56:36;;;;;;;6.30;5.13;;;13.70;72.60;;;;;;4990557;28;20069;-77
2021/09/24 04:59:02;;;;;;;5.43;4.93;;;13.70;72.60;;;;;;4998128;28;20076;-77
2021/09/24 05:01:28;;;;;;;5.47;4.68;;;13.70;72.60;;;;;;4983970;28;20030;-76
2021/09/24 05:03:54;;;;;;;7.93;5.22;;;13.70;72.60;;;;;;5000986;28;20065;-77
2021/09/24 05:06:20;;;;;;;6.30;4.40;;;13.70;72.60;;;;;;4955072;28;20034;-78
2021/09/24 05:08:46;;;;;;;6.20;4.43;;;13.70;72.70;;;;;;5000503;28;20037;-77
2021/09/24 05:11:13;;;;;;;7.03;5.07;;;13.70;72.70;;;;;;4990320;28;20065;-78
2021/09/24 05:13:39;;;;;;;6.30;5.13;;;13.70;72.70;;;;;;5006312;28;20076;-78
2021/09/24 05:16:05;;;;;;;6.60;5.18;;;13.60;72.50;;;;;;4973566;28;20080;-77
2021/09/24 05:18:31;;;;;;;5.85;5.07;;;13.60;72.50;;;;;;4990109;28;20040;-78
2021/09/24 05:20:57;;;;;;;7.30;5.70;;;13.60;72.60;;;;;;4990137;28;20033;-76
2021/09/24 05:23:23;;;;;;;7.55;5.68;;;13.60;72.60;;;;;;5007806;28;20149;-76
2021/09/24 05:25:49;;;;;;;6.55;4.90;;;13.60;72.60;;;;;;5007246;28;20143;-77
2021/09/24 05:28:15;;;;;;;6.10;5.38;;;13.60;72.60;;;;;;4973382;28;20117;-77
2021/09/24 05:30:41;;;;;;;6.72;5.35;;;13.60;72.70;;;;;;4985987;28;20049;-79
2021/09/24 05:33:07;;;;;;;8.43;5.97;;;13.60;72.70;;;;;;4987984;28;20153;-77
2021/09/24 05:35:33;;;;;;;7.72;5.88;;;13.60;72.70;;;;;;4986967;28;20262;-76
2021/09/24 05:37:59;;;;;;;7.60;5.45;;;13.60;72.70;;;;;;4985041;28;20033;-79
2021/09/24 05:40:26;;;;;;;6.28;5.30;;;13.50;72.60;;;;;;4973467;28;20100;-75
2021/09/24 05:42:52;;;;;;;6.57;5.57;;;13.50;72.60;;;;;;5006625;28;20080;-78
2021/09/24 05:45:20;;;;;;;8.85;6.40;;;13.50;72.60;;;;;;5004501;28;20061;-78
2021/09/24 05:47:46;;;;;;;9.60;5.65;;;13.50;72.70;;;;;;4985453;28;20406;-77
2021/09/24 05:50:13;;;;;;;8.68;5.82;;;13.50;72.70;;;;;;5005779;28;20459;-79
2021/09/24 05:52:50;;;;;;;8.45;5.63;;;13.50;72.70;;;;;;5000990;28;20029;-79
2021/09/24 05:55:19;;;;;;;7.30;5.93;;;13.50;73.30;;;;;;4988846;28;20053;-78
2021/09/24 05:57:46;;;;;;;7.45;6.75;;;13.50;72.80;;;;;;4990699;28;20088;-78
2021/09/24 06:00:19;;;;;;;8.93;5.88;;;13.50;72.80;;;;;;4998355;28;20038;-80
2021/09/24 06:02:47;;;;;;;8.82;6.97;;;13.50;72.90;;;;;;4981590;28;20030;-76
2021/09/24 06:05:16;;;;;;;10.10;9.10;;;13.50;73.60;;;;;;5006664;28;20036;-77
2021/09/24 06:07:46;;;;;;;15.45;9.20;;;13.50;73.40;;;;;;4989037;28;20030;-79
2021/09/24 06:10:14;;;;;;;11.55;9.77;;;13.60;73.90;;;;;;4987591;28;20136;-77
2021/09/24 06:12:41;;;;;;;14.07;10.13;;;13.60;74.00;;;;;;5005803;28;20042;-77
2021/09/24 06:15:08;;;;;;;11.00;8.88;;;13.60;74.60;;;;;;4997057;28;20415;-78
2021/09/24 06:17:34;;;;;;;16.25;10.43;;;13.60;74.20;;;;;;4995930;28;20049;-77
2021/09/24 06:20:01;;;;;;;13.15;10.25;;;13.70;74.50;;;;;;5000769;28;20079;-77
2021/09/24 06:22:27;;;;;;;12.55;9.73;;;13.70;74.60;;;;;;5005239;28;20152;-77
2021/09/24 06:24:54;;;;;;;12.93;10.38;;;13.70;74.60;;;;;;4988811;28;20053;-77
2021/09/24 06:27:20;;;;;;;12.45;11.13;;;13.70;74.60;;;;;;5000304;28;20132;-78
2021/09/24 06:29:50;;;;;;;12.45;9.80;;;13.70;74.70;;;;;;4989730;28;20130;-77
2021/09/24 06:32:17;;;;;;;15.73;12.10;;;13.70;74.80;;;;;;4975894;28;20038;-77
2021/09/24 06:34:45;;;;;;;11.43;10.23;;;13.80;74.90;;;;;;4980165;28;20137;-78
2021/09/24 06:37:11;;;;;;;14.95;12.15;;;13.70;74.80;;;;;;4985778;28;20090;-78
2021/09/24 06:39:38;;;;;;;12.90;10.60;;;13.80;75.00;;;;;;4982370;28;20030;-75
2021/09/24 06:42:04;;;;;;;13.95;12.27;;;13.80;75.00;;;;;;4986539;28;20046;-76
2021/09/24 06:44:30;;;;;;;12.60;10.98;;;13.80;75.10;;;;;;4977269;28;20026;-78
2021/09/24 06:46:56;;;;;;;16.00;11.45;;;13.80;75.10;;;;;;4983663;28;20035;-77
2021/09/24 06:49:23;;;;;;;15.35;10.65;;;13.80;75.20;;;;;;4976972;28;20067;-77
2021/09/24 06:51:50;;;;;;;14.18;10.73;;;13.90;75.50;;;;;;4988767;28;20440;-77
2021/09/24 06:54:16;;;;;;;19.95;11.55;;;13.90;75.70;;;;;;4999231;28;20026;-76
2021/09/24 06:56:43;;;;;;;16.17;12.07;;;13.90;75.90;;;;;;4998728;28;20275;-76
2021/09/24 06:59:10;;;;;;;20.13;14.00;;;14.00;76.60;;;;;;4995315;28;20545;-77
2021/09/24 07:01:36;;;;;;;22.52;14.52;;;14.10;77.40;;;;;;4994761;28;20121;-76
2021/09/24 07:04:03;;;;;;;19.88;15.32;;;14.20;78.00;;;;;;4994547;28;20284;-77
2021/09/24 07:06:29;;;;;;;22.30;15.18;;;14.40;78.80;;;;;;4988196;28;20462;-78
2021/09/24 07:09:13;;;;;;;18.33;13.05;;;14.40;79.10;;;;;;4987841;28;20038;-81
2021/09/24 07:11:39;;;;;;;13.77;11.30;;;14.60;79.90;;;;;;4988162;28;20121;-83
2021/09/24 07:14:08;;;;;;;17.23;12.05;;;14.60;79.50;;;;;;4975844;28;20121;-78
2021/09/24 07:16:38;;;;;;;15.32;11.50;;;14.70;79.70;;;;;;4986091;28;20505;-78
2021/09/24 07:19:05;;;;;;;17.08;10.88;;;14.80;79.80;;;;;;4994000;28;20559;-77
2021/09/24 07:21:32;;;;;;;15.00;12.18;;;14.90;79.90;;;;;;5030438;28;20022;-76
2021/09/24 07:23:59;;;;;;;16.83;12.00;;;14.90;79.90;;;;;;5019459;28;20106;-77
2021/09/24 07:26:27;;;;;;;14.95;11.60;;;15.00;80.20;;;;;;4984386;28;20380;-77
2021/09/24 07:28:54;;;;;;;15.43;10.60;;;15.10;80.30;;;;;;4977719;28;20394;-78
2021/09/24 07:31:21;;;;;;;15.63;11.13;;;15.10;80.20;;;;;;5007882;28;20048;-77
2021/09/24 07:33:47;;;;;;;12.88;10.63;;;15.20;80.40;;;;;;4989317;28;20124;-77
2021/09/24 07:36:16;;;;;;;14.88;11.45;;;15.20;80.30;;;;;;4998467;28;20124;-76
2021/09/24 07:38:43;;;;;;;14.55;9.65;;;15.30;80.40;;;;;;4988810;28;20033;-81
2021/09/24 07:41:09;;;;;;;24.38;18.00;;;15.30;80.20;;;;;;5006261;28;20366;-80
2021/09/24 07:43:35;;;;;;;20.25;14.73;;;15.40;80.40;;;;;;5004827;28;20462;-80
2021/09/24 07:46:01;;;;;;;17.88;14.43;;;15.40;80.60;;;;;;4985465;28;20475;-80
2021/09/24 07:48:27;;;;;;;20.20;13.50;;;15.50;80.90;;;;;;5002169;28;20125;-79
2021/09/24 07:50:53;;;;;;;20.23;15.38;;;15.60;81.00;;;;;;4989498;28;20037;-79
2021/09/24 07:53:19;;;;;;;15.52;13.23;;;15.60;81.10;;;;;;4987484;28;20140;-79
2021/09/24 07:55:45;;;;;;;15.65;12.07;;;15.70;81.30;;;;;;4983297;28;20041;-80
2021/09/24 07:58:11;;;;;;;17.05;13.05;;;15.70;81.30;;;;;;4992509;28;20049;-80
2021/09/24 08:00:37;;;;;;;15.93;12.55;;;15.80;81.50;;;;;;4968905;28;20034;-79
2021/09/24 08:03:04;;;;;;;16.95;11.90;;;15.90;81.70;;;;;;4985411;28;20030;-78
2021/09/24 08:05:33;;;;;;;14.23;11.57;;;16.00;81.80;;;;;;4969848;28;20190;-80
2021/09/24 08:07:59;;;;;;;15.35;11.85;;;16.20;82.00;;;;;;4985344;28;20500;-81
2021/09/24 08:10:25;;;;;;;11.25;9.82;;;16.30;81.90;;;;;;4952634;28;20481;-81
2021/09/24 08:12:52;;;;;;;14.95;10.73;;;16.40;81.80;;;;;;4992061;28;20021;-80
2021/09/24 08:15:18;;;;;;;14.10;10.50;;;16.50;81.80;;;;;;4989478;28;20411;-81
2021/09/24 08:17:44;;;;;;;16.55;10.82;;;16.60;81.90;;;;;;4973982;28;20038;-81
2021/09/24 08:20:12;;;;;;;13.23;10.40;;;16.70;81.90;;;;;;4981540;28;20041;-81
2021/09/24 08:22:38;;;;;;;11.95;8.60;;;16.80;81.80;;;;;;5008003;28;20033;-81
2021/09/24 08:25:16;;;;;;;11.05;9.02;;;16.90;81.80;;;;;;5008070;28;20512;-80
2021/09/24 08:27:43;;;;;;;10.27;7.85;;;17.00;81.80;;;;;;4991066;28;20402;-80
2021/09/24 08:30:12;;;;;;;11.65;8.88;;;17.00;81.60;;;;;;4974756;28;20133;-80
2021/09/24 08:32:38;;;;;;;10.20;8.85;;;17.00;81.40;;;;;;4991898;28;20044;-79
2021/09/24 08:35:07;;;;;;;11.32;8.43;;;17.20;81.60;;;;;;4984311;28;20025;-80
2021/09/24 08:37:33;;;;;;;9.02;7.40;;;17.30;81.60;;;;;;4976202;28;20518;-80
2021/09/24 08:39:59;;;;;;;10.63;7.68;;;17.30;81.30;;;;;;5006849;28;20168;-79
2021/09/24 08:42:26;;;;;;;10.15;7.78;;;17.40;81.30;;;;;;4974702;28;20351;-81
2021/09/24 08:44:53;;;;;;;10.85;8.38;;;17.50;81.30;;;;;;5008036;28;20048;-80
2021/09/24 08:47:20;;;;;;;8.27;7.03;;;17.50;81.20;;;;;;4968754;28;20342;-80
2021/09/24 08:49:47;;;;;;;10.20;7.32;;;17.70;81.40;;;;;;4990708;28;20030;-80
2021/09/24 08:52:13;;;;;;;12.73;6.10;;;17.80;81.30;;;;;;5005774;28;20207;-81
2021/09/24 08:54:39;;;;;;;7.32;6.13;;;17.90;81.20;;;;;;4971354;28;20041;-78
2021/09/24 08:57:11;;;;;;;10.10;7.38;;;18.00;81.20;;;;;;4970541;28;20046;-79
2021/09/24 08:59:37;;;;;;;8.13;5.95;;;18.10;81.10;;;;;;4972581;28;20156;-77
2021/09/24 09:02:09;;;;;;;8.32;6.03;;;18.30;81.20;;;;;;4989033;28;20798;-81
2021/09/24 09:04:35;;;;;;;10.48;5.40;;;18.50;81.10;;;;;;4999549;28;20045;-81
2021/09/24 09:07:09;;;;;;;7.30;5.25;;;18.60;80.90;;;;;;4987461;28;20042;-80
2021/09/24 09:09:38;;;;;;;9.95;5.50;;;18.70;80.70;;;;;;4996533;28;20070;-77
2021/09/24 09:12:21;;;;;;;12.38;6.38;;;18.90;80.70;;;;;;4988908;28;20046;-81
2021/09/24 09:15:16;;;;;;;;;;;19.00;80.40;;;;;;5007101;28;20026;-80
2021/09/24 09:17:44;;;;;;;5.40;3.78;;;19.20;80.50;;;;;;4968156;28;19961;-79
2021/09/24 09:20:21;;;;;;;6.75;4.53;;;19.30;80.10;;;;;;5003269;28;20021;-80
2021/09/24 09:23:09;;;;;;;5.22;3.88;;;19.30;79.90;;;;;;4992375;28;20029;-78
2021/09/24 09:25:39;;;;;;;7.40;5.07;;;19.30;79.80;;;;;;4994916;28;20038;-79
2021/09/24 09:28:12;;;;;;;8.57;4.78;;;19.30;79.60;;;;;;4995016;28;20050;-80
2021/09/24 09:30:40;;;;;;;7.57;4.80;;;19.40;79.60;;;;;;4986237;28;20030;-78
2021/09/24 09:33:15;;;;;;;9.05;4.10;;;19.40;79.40;;;;;;4977923;28;20400;-78
2021/09/24 09:35:45;;;;;;;8.30;4.40;;;19.60;79.50;;;;;;4988932;28;20044;-77
2021/09/24 09:38:32;;;;;;;7.78;4.40;;;19.70;79.50;;;;;;4971664;28;20504;-78
2021/09/24 09:41:10;;;;;;;6.80;3.85;;;19.80;79.20;;;;;;4988599;28;20080;-80
2021/09/24 09:43:49;;;;;;;9.82;5.10;;;20.00;79.20;;;;;;4975095;28;20045;-80
2021/09/24 09:46:30;;;;;;;7.47;4.00;;;20.20;79.20;;;;;;4988455;28;20030;-79
2021/09/24 09:49:25;;;;;;;6.57;2.95;;;20.30;79.00;;;;;;5006833;28;20125;-79
2021/09/24 09:52:07;;;;;;;5.57;4.05;;;20.50;78.90;;;;;;4986843;28;20030;-79
2021/09/24 09:54:33;;;;;;;6.90;3.88;;;20.60;78.60;;;;;;4987686;28;20026;-79
2021/09/24 09:57:18;;;;;;;6.75;3.17;;;20.60;78.30;;;;;;4987548;28;20041;-80
2021/09/24 09:59:52;;;;;;;5.30;3.50;;;20.70;78.20;;;;;;5008076;28;20029;-80
2021/09/24 10:02:31;;;;;;;5.47;3.65;;;20.80;78.10;;;;;;5013559;28;20029;-78
2021/09/24 10:04:58;;;;;;;4.50;3.30;;;20.90;78.00;;;;;;5020083;28;20076;-80
2021/09/24 10:07:27;;;;;;;7.53;4.03;;;21.00;78.00;;;;;;5017057;28;20104;-79
2021/09/24 10:10:10;;;;;;;5.78;3.17;;;21.00;77.80;;;;;;4990117;28;20026;-78
2021/09/24 10:12:36;;;;;;;;;;;21.00;77.50;;;;;;4972317;28;20026;-81
2021/09/24 10:15:04;;;;;;;5.00;3.58;;;21.10;77.70;;;;;;4997987;28;19914;-80
2021/09/24 10:17:31;;;;;;;7.07;3.75;;;21.10;77.50;;;;;;5008004;28;20076;-80
2021/09/24 10:19:58;;;;;;;6.05;3.25;;;21.20;77.50;;;;;;5005648;28;20048;-79
2021/09/24 10:22:26;;;;;;;4.85;3.13;;;21.20;77.40;;;;;;4989497;28;20453;-80
2021/09/24 10:24:55;;;;;;;6.00;3.70;;;21.30;77.40;;;;;;4989623;28;20493;-80
2021/09/24 10:27:28;;;;;;;8.02;3.60;;;21.40;77.30;;;;;;4989639;28;20038;-80
2021/09/24 10:29:56;;;;;;;6.70;3.92;;;21.50;77.10;;;;;;5007278;28;20029;-80
2021/09/24 10:32:23;;;;;;;5.05;2.83;;;21.60;77.10;;;;;;4989610;28;20100;-80
2021/09/24 10:35:11;;;;;;;4.53;2.83;;;21.70;77.00;;;;;;5006302;28;20370;-80
2021/09/24 10:37:40;;;;;;;4.18;2.92;;;21.80;76.80;;;;;;5003695;28;20092;-80
2021/09/24 10:40:26;;;;;;;4.20;2.85;;;21.90;76.70;;;;;;4970429;28;20026;-80
2021/09/24 10:42:58;;;;;;;4.75;2.88;;;22.00;76.50;;;;;;4992012;28;20036;-81
2021/09/24 10:45:29;;;;;;;7.93;3.50;;;22.00;76.40;;;;;;5022676;28;20041;-80
2021/09/24 10:48:02;;;;;;;6.90;2.70;;;22.00;76.30;;;;;;5030197;28;20140;-81
2021/09/24 10:50:37;;;;;;;4.40;3.00;;;22.10;76.40;;;;;;5014144;28;20057;-79
2021/09/24 10:53:09;;;;;;;6.50;3.28;;;22.20;76.30;;;;;;5008713;28;20080;-81
2021/09/24 10:55:51;;;;;;;3.85;3.30;;;22.40;76.40;;;;;;5008513;28;20023;-80
2021/09/24 10:58:27;;;;;;;3.40;2.20;;;22.50;76.40;;;;;;4988763;28;20049;-81
2021/09/24 11:00:59;;;;;;;6.25;3.08;;;22.60;76.20;;;;;;4987747;28;20113;-80
2021/09/24 11:03:28;;;;;;;5.35;2.80;;;22.70;76.10;;;;;;4988860;28;20522;-82
2021/09/24 11:06:10;;;;;;;4.68;2.50;;;22.80;76.10;;;;;;4988136;28;20129;-81
2021/09/24 11:08:40;;;;;;;4.78;3.10;;;22.80;75.80;;;;;;4986413;28;20042;-79
2021/09/24 11:11:12;;;;;;;3.67;2.58;;;22.90;75.80;;;;;;4972254;28;20092;-79
2021/09/24 11:13:43;;;;;;;4.68;2.60;;;23.00;75.70;;;;;;4988323;28;20516;-78
2021/09/24 11:16:12;;;;;;;6.15;2.40;;;23.10;75.70;;;;;;4990188;28;20466;-78
2021/09/24 11:18:49;;;;;;;7.38;3.35;;;23.20;75.50;;;;;;4996772;28;20035;-79
2021/09/24 11:21:19;;;;;;;6.32;2.38;;;23.20;75.20;;;;;;4993230;28;20309;-78
2021/09/24 11:23:47;;;;;;;7.57;3.00;;;23.30;75.20;;;;;;4989621;28;20034;-80
2021/09/24 11:26:16;;;;;;;8.05;3.13;;;23.30;75.00;;;;;;4994564;28;20065;-81
2021/09/24 11:28:44;;;;;;;9.55;3.60;;;23.20;74.80;;;;;;5010376;28;20128;-81
2021/09/24 11:31:15;;;;;;;10.00;4.10;;;23.20;74.90;;;;;;4992641;28;20022;-82
2021/09/24 11:33:43;;;;;;;5.93;2.78;;;23.20;75.00;;;;;;5001992;28;20292;-81
2021/09/24 11:36:10;;;;;;;7.30;2.40;;;23.20;75.00;;;;;;4989460;28;20034;-80
2021/09/24 11:38:36;;;;;;;6.97;2.72;;;23.20;75.20;;;;;;4990829;28;20030;-81
2021/09/24 11:41:02;;;;;;;6.85;2.10;;;23.10;74.30;;;;;;5008960;28;20628;-82
2021/09/24 11:43:34;;;;;;;3.85;2.20;;;23.10;74.10;;;;;;4991070;28;20030;-82
2021/09/24 11:46:13;;;;;;;5.63;1.83;;;23.10;73.90;;;;;;4993747;28;20454;-80
2021/09/24 11:48:39;;;;;;;6.78;2.28;;;23.00;73.70;;;;;;4976516;28;20404;-81
2021/09/24 11:51:18;;;;;;;8.55;2.78;;;23.00;73.80;;;;;;4994876;28;20029;-87
2021/09/24 11:53:52;;;;;;;5.97;1.75;;;22.90;73.50;;;;;;4997438;28;20034;-81
2021/09/24 11:56:31;;;;;;;4.70;2.38;;;22.90;73.70;;;;;;4972393;28;20493;-82
2021/09/24 11:59:15;;;;;;;5.95;2.50;;;22.90;73.60;;;;;;5001778;28;20049;-79
2021/09/24 12:01:42;;;;;;;4.50;1.92;;;22.80;73.40;;;;;;5006560;28;20496;-82
2021/09/24 12:04:09;;;;;;;8.38;2.58;;;22.80;73.60;;;;;;5004018;28;20036;-81
2021/09/24 12:06:37;;;;;;;5.63;3.05;;;22.80;73.60;;;;;;5010241;28;20193;-81
2021/09/24 12:09:09;;;;;;;7.95;2.97;;;22.80;73.50;;;;;;4996984;28;20029;-79
2021/09/24 12:11:47;;;;;;;2.58;1.90;;;22.90;73.80;;;;;;4972684;28;20038;-82
2021/09/24 12:14:18;;;;;;;4.72;2.25;;;23.00;74.00;;;;;;5003469;28;20049;-82
2021/09/24 12:16:45;;;;;;;5.70;2.40;;;23.00;74.00;;;;;;4991818;28;20045;-81
2021/09/24 12:19:13;;;;;;;5.85;1.88;;;23.10;74.10;;;;;;4996535;28;20113;-83
2021/09/24 12:21:46;;;;;;;3.50;1.88;;;23.20;74.10;;;;;;4988895;28;20046;-79
2021/09/24 12:24:33;;;;;;;4.40;2.17;;;23.40;74.20;;;;;;5005504;28;20037;-79
2021/09/24 12:27:13;;;;;;;5.68;2.30;;;23.50;74.10;;;;;;4987971;28;20038;-82
2021/09/24 12:29:42;;;;;;;5.40;1.98;;;23.60;74.00;;;;;;4995840;28;20450;-80
2021/09/24 12:32:12;;;;;;;4.57;2.30;;;23.70;73.90;;;;;;4990875;28;20033;-80
2021/09/24 12:35:01;;;;;;;5.03;2.65;;;23.80;74.00;;;;;;4988556;28;20081;-80
2021/09/24 12:37:36;;;;;;;5.45;2.35;;;23.80;73.80;;;;;;4990721;28;20080;-80
2021/09/24 12:40:09;;;;;;;3.85;2.20;;;23.80;73.60;;;;;;4983423;28;20050;-81
2021/09/24 12:42:42;;;;;;;5.20;2.22;;;23.80;73.50;;;;;;4990571;28;20037;-80
2021/09/24 12:45:19;;;;;;;5.30;2.33;;;23.80;73.50;;;;;;5007126;28;20030;-81
2021/09/24 12:47:45;;;;;;;4.43;2.10;;;23.80;74.10;;;;;;5006509;28;20129;-80
2021/09/24 12:50:11;;;;;;;5.38;2.95;;;23.70;73.40;;;;;;5007580;28;20018;-81